الصفحة الرئيسية
METAR-TAF:

METAR-TAF

مطار :

مطار أنتونيو بي وان بات الدولي

Hagåtña, غوام, الولايات المتحدة

دائرة عرض: 13-29N, خط طول: 144-48E, ارتفاع: 91 متر

مراقبة الطقس الحالي

تاريخ ووقت الإصدار 9 دقيقة قبل الساعة 00:54UTC
ريح 10 عقدة من الشرق
درجة الحرارة 32°درجة مئوية
الرطوبة 71%
ضغط 1013 hPa
الرؤية: 14.5 كم
غيوم قليلة على ارتفاع 2100 قدم
غيوم متفرقة على ارتفاع 2700 قدم

METAR: PGUM 240054Z 09010KT 9SM FEW021 SCT027 32/26 A2991 RMK AO2 SLP119 T03170256

زمن: 11:03 (01:03 UTC)

توقعات

تاريخ ووقت الإصدار 1ساعة و 29 دقيقة قبل الساعة 23:34UTC
التوقعات صالحة من24 الساعة 00 UTC إلى 25 الساعة 06 UTC
ريح 14 عقدة من الشرق
الرؤية: 10 كم
غيوم قليلة على ارتفاع 2000 قدم
غيوم متفرقة على ارتفاع 5000 قدم
من 24 الساعة 0800 UTC
ريح 9 عقدة من الشرق
الرؤية: 10 كم
غيوم قليلة على ارتفاع 2000 قدم
غيوم متفرقة على ارتفاع 5000 قدم
زخات في الجوار

TAF: PGUM 232334Z 2400/2506 09014KT P6SM FEW020 SCT050 FM240800 09009KT P6SM VCSH FEW020 SCT050

أرصاد الطقس والتوقعات من أكثر من 4000 مطار (تقارير الطقس للمطار METAR والتنبؤ بالطقس بالمطارTAF).

المحطات المتاحة هي النقط الصفراء والحمراء على الخريطة.

حرك المؤشر فوق النقطة لمعرفة اسم المحطة.

ثم انقر لمعرفة أرصاد وتوقعات الطقس.

لتغيير الخارطة: اضغط على الأزرار الخضراء مع رمز الصليب الأسود للتكبير. على الزر الأخضر مع شرطة للتصغير، أو على الأسهم الخضراء للخرائط المجاورة.


METAR-TAF: